Time;durP1;ratioP1;P1;durP2;ratioP2;P2;SDS_P1;SDS_P2;PMS_P1;PMS_P2;Temp;Humidity;BMP_temperature;BMP_pressure;BME280_temperature;BME280_humidity;BME280_pressure;Samples;Min_cycle;Max_cycle;Signal;HPM_P1;HPM_P2
2022/09/13 00:01:20;;;;;;;0.40;0.40;;;12.60;99.90;;;;;;5035555;28;20425;-66
2022/09/13 00:04:08;;;;;;;0.40;0.40;;;12.60;99.90;;;;;;5035521;28;20457;-66
2022/09/13 00:06:56;;;;;;;0.40;0.40;;;12.50;99.90;;;;;;5035753;28;20517;-67
2022/09/13 00:09:44;;;;;;;0.40;0.40;;;12.50;99.90;;;;;;5035556;28;20417;-65
2022/09/13 00:12:33;;;;;;;0.40;0.40;;;12.40;99.90;;;;;;5035680;28;20838;-66
2022/09/13 00:15:21;;;;;;;0.70;0.70;;;12.40;99.90;;;;;;5035313;28;20996;-66
2022/09/13 00:18:10;;;;;;;0.40;0.40;;;12.40;99.90;;;;;;5035210;28;20425;-66
2022/09/13 00:21:06;;;;;;;0.50;0.50;;;12.50;99.90;;;;;;5035075;28;20973;-65
2022/09/13 00:23:55;;;;;;;0.40;0.40;;;12.40;99.90;;;;;;5035607;28;20445;-65
2022/09/13 00:26:44;;;;;;;0.90;0.90;;;12.40;99.90;;;;;;5034999;28;20430;-65
2022/09/13 00:29:32;;;;;;;0.40;0.40;;;12.30;99.90;;;;;;5034994;28;20954;-65
2022/09/13 00:32:20;;;;;;;0.40;0.40;;;12.30;99.90;;;;;;5034103;28;20954;-65
2022/09/13 00:35:10;;;;;;;0.40;0.40;;;12.30;99.90;;;;;;5035201;28;20472;-66
2022/09/13 00:37:59;;;;;;;0.40;0.40;;;12.30;99.90;;;;;;5034970;28;20483;-65
2022/09/13 00:40:48;;;;;;;0.40;0.40;;;12.20;99.90;;;;;;5034861;28;21037;-65
2022/09/13 00:43:46;;;;;;;0.40;0.40;;;12.10;99.90;;;;;;5034583;28;20449;-65
2022/09/13 00:46:39;;;;;;;0.40;0.40;;;12.10;99.90;;;;;;5034956;28;20433;-66
2022/09/13 00:49:36;;;;;;;0.50;0.50;;;12.10;99.90;;;;;;5034529;28;20937;-66
2022/09/13 00:52:29;;;;;;;0.40;0.40;;;12.10;99.90;;;;;;5034342;28;20821;-65
2022/09/13 00:55:20;;;;;;;0.50;0.50;;;12.10;99.90;;;;;;5035110;28;20460;-65
2022/09/13 00:58:13;;;;;;;0.50;0.50;;;12.10;99.90;;;;;;5034794;28;20417;-66
2022/09/13 01:01:02;;;;;;;0.40;0.40;;;12.00;99.90;;;;;;5034166;28;20425;-67
2022/09/13 01:03:51;;;;;;;0.40;0.40;;;12.00;99.90;;;;;;5034170;28;20461;-65
2022/09/13 01:06:41;;;;;;;0.50;0.50;;;12.00;99.90;;;;;;5034386;28;20421;-66
2022/09/13 01:09:32;;;;;;;0.50;0.50;;;12.00;99.90;;;;;;5034074;28;20440;-67
2022/09/13 01:12:32;;;;;;;0.40;0.40;;;11.90;99.90;;;;;;5034401;28;20422;-66
2022/09/13 01:15:20;;;;;;;0.57;0.57;;;11.80;99.90;;;;;;5032122;28;20495;-66
2022/09/13 01:18:10;;;;;;;0.50;0.50;;;11.80;99.90;;;;;;5044473;28;20420;-66
2022/09/13 01:21:42;;;;;;;0.50;0.50;;;11.80;99.90;;;;;;5054135;28;20443;-66
2022/09/13 01:25:05;;;;;;;0.50;0.50;;;11.80;99.90;;;;;;5053157;28;20468;-66
2022/09/13 01:28:33;;;;;;;0.40;0.40;;;11.80;99.90;;;;;;5054599;28;20499;-67
2022/09/13 01:31:29;;;;;;;0.40;0.40;;;11.80;99.90;;;;;;5053826;28;20474;-66
2022/09/13 01:34:28;;;;;;;0.40;0.40;;;11.70;99.90;;;;;;5052770;28;21019;-67
2022/09/13 01:37:39;;;;;;;0.40;0.40;;;11.70;99.90;;;;;;5053690;28;20514;-66
2022/09/13 01:40:42;;;;;;;0.40;0.40;;;11.70;99.90;;;;;;5053613;28;20420;-66
2022/09/13 01:43:40;;;;;;;0.40;0.40;;;11.70;99.90;;;;;;5053439;28;20534;-67
2022/09/13 01:46:34;;;;;;;0.50;0.50;;;11.80;99.90;;;;;;5053772;28;20917;-67
2022/09/13 01:49:31;;;;;;;0.50;0.50;;;11.70;99.90;;;;;;5052384;28;20511;-66
2022/09/13 01:52:25;;;;;;;0.40;0.40;;;11.70;99.90;;;;;;5053348;28;20448;-67
2022/09/13 01:55:26;;;;;;;0.50;0.50;;;11.70;99.90;;;;;;5054386;28;20507;-67
2022/09/13 01:58:22;;;;;;;0.40;0.40;;;11.70;99.90;;;;;;5054742;28;20456;-66
2022/09/13 02:01:16;;;;;;;0.40;0.40;;;11.70;99.90;;;;;;5054093;28;20489;-67
2022/09/13 02:04:11;;;;;;;0.47;0.47;;;11.90;99.90;;;;;;5054014;28;20537;-66
2022/09/13 02:07:04;;;;;;;0.40;0.40;;;11.80;99.90;;;;;;5053983;28;20610;-66
2022/09/13 02:09:58;;;;;;;0.40;0.40;;;11.90;99.90;;;;;;5052731;28;20491;-66
2022/09/13 02:12:49;;;;;;;0.40;0.40;;;11.80;99.90;;;;;;5055221;28;20534;-66
2022/09/13 02:15:41;;;;;;;0.40;0.40;;;11.90;99.90;;;;;;5056823;28;20567;-66
2022/09/13 02:18:32;;;;;;;0.50;0.50;;;11.70;99.90;;;;;;5057166;28;20526;-67
2022/09/13 02:21:26;;;;;;;0.40;0.40;;;11.70;99.90;;;;;;5057825;28;20507;-66
2022/09/13 02:24:18;;;;;;;0.40;0.40;;;11.70;99.90;;;;;;5056701;28;20909;-67
2022/09/13 02:27:09;;;;;;;0.40;0.40;;;11.70;99.90;;;;;;5057364;28;20915;-68
2022/09/13 02:30:01;;;;;;;0.40;0.40;;;11.80;99.90;;;;;;5057606;28;20519;-66
2022/09/13 02:32:55;;;;;;;0.40;0.40;;;11.70;99.90;;;;;;5057398;28;20448;-66
2022/09/13 02:35:48;;;;;;;0.40;0.40;;;11.70;99.90;;;;;;5057265;28;20430;-66
2022/09/13 02:38:45;;;;;;;0.50;0.50;;;11.60;99.90;;;;;;5054717;28;20424;-66
2022/09/13 02:41:39;;;;;;;0.40;0.40;;;11.70;99.90;;;;;;5055757;28;20876;-66
2022/09/13 02:44:33;;;;;;;0.40;0.40;;;11.70;99.90;;;;;;5054763;28;20436;-67
2022/09/13 02:47:34;;;;;;;0.40;0.40;;;11.80;99.90;;;;;;5054855;28;20502;-66
2022/09/13 02:50:34;;;;;;;0.40;0.40;;;11.60;99.90;;;;;;5054915;28;20419;-67
2022/09/13 02:53:30;;;;;;;0.40;0.40;;;11.60;99.90;;;;;;5053413;28;20972;-66
2022/09/13 02:56:27;;;;;;;0.40;0.40;;;11.60;99.90;;;;;;5055099;28;20471;-66
2022/09/13 02:59:17;;;;;;;0.50;0.50;;;11.60;99.90;;;;;;5053538;28;20460;-65
2022/09/13 03:02:08;;;;;;;0.40;0.40;;;11.60;99.90;;;;;;5054089;28;20424;-66
2022/09/13 03:04:56;;;;;;;0.40;0.40;;;11.50;99.90;;;;;;5055728;28;20452;-67
2022/09/13 03:07:44;;;;;;;0.40;0.40;;;11.50;99.90;;;;;;5054421;28;20828;-67
2022/09/13 03:10:48;;;;;;;0.40;0.40;;;11.50;99.90;;;;;;5055902;28;21001;-66
2022/09/13 03:14:05;;;;;;;0.40;0.40;;;11.50;99.90;;;;;;5055452;28;20535;-65
2022/09/13 03:17:14;;;;;;;0.40;0.40;;;11.50;99.90;;;;;;5055233;28;20675;-67
2022/09/13 03:20:12;;;;;;;0.40;0.40;;;11.40;99.90;;;;;;5055892;28;20473;-66
2022/09/13 03:23:41;;;;;;;0.40;0.40;;;11.40;99.90;;;;;;5055306;28;20448;-67
2022/09/13 03:26:41;;;;;;;0.40;0.40;;;11.40;99.90;;;;;;5055883;28;20444;-69
2022/09/13 03:29:35;;;;;;;0.50;0.50;;;11.40;99.90;;;;;;5055232;28;20545;-67
2022/09/13 03:32:34;;;;;;;0.40;0.40;;;11.40;99.90;;;;;;5054963;28;20463;-68
2022/09/13 03:35:29;;;;;;;0.40;0.40;;;11.40;99.90;;;;;;5055972;28;20421;-67
2022/09/13 03:38:21;;;;;;;0.40;0.40;;;11.40;99.90;;;;;;5056658;28;20474;-67
2022/09/13 03:41:14;;;;;;;0.50;0.50;;;11.40;99.90;;;;;;5054749;28;20420;-67
2022/09/13 03:44:05;;;;;;;0.50;0.50;;;11.40;99.90;;;;;;5055391;28;20590;-66
2022/09/13 03:47:00;;;;;;;0.40;0.40;;;11.40;99.90;;;;;;5054898;28;20550;-68
2022/09/13 03:49:49;;;;;;;0.40;0.40;;;11.50;99.90;;;;;;5055918;28;20520;-67
2022/09/13 03:52:37;;;;;;;0.40;0.40;;;11.50;99.90;;;;;;5056587;28;20538;-66
2022/09/13 03:55:33;;;;;;;0.50;0.50;;;11.50;99.90;;;;;;5055833;28;20524;-66
2022/09/13 03:58:22;;;;;;;0.40;0.40;;;11.50;99.90;;;;;;5055644;28;20456;-67
2022/09/13 04:01:10;;;;;;;0.40;0.40;;;11.60;99.90;;;;;;5056253;28;20432;-67
2022/09/13 04:03:59;;;;;;;0.40;0.40;;;13.70;99.90;;;;;;5055548;28;20542;-66
2022/09/13 04:06:48;;;;;;;0.40;0.40;;;12.00;99.90;;;;;;5056169;28;20942;-69
2022/09/13 04:09:36;;;;;;;0.80;0.80;;;12.00;99.90;;;;;;5054947;28;20471;-65
2022/09/13 04:12:24;;;;;;;0.40;0.40;;;11.90;99.90;;;;;;5054854;28;20478;-66
2022/09/13 04:15:13;;;;;;;0.40;0.40;;;12.00;99.90;;;;;;5055482;28;20420;-68
2022/09/13 04:18:01;;;;;;;0.50;0.50;;;12.00;99.90;;;;;;5054493;28;20462;-65
2022/09/13 04:20:56;;;;;;;0.40;0.40;;;12.10;99.90;;;;;;5055478;28;20455;-67
2022/09/13 04:23:44;;;;;;;0.40;0.40;;;12.20;99.90;;;;;;5054827;28;20531;-65
2022/09/13 04:26:33;;;;;;;0.40;0.40;;;12.10;99.90;;;;;;5055400;28;20459;-67
2022/09/13 04:29:23;;;;;;;0.50;0.50;;;12.20;99.90;;;;;;5054074;28;20949;-66
2022/09/13 04:32:11;;;;;;;0.40;0.40;;;12.30;99.90;;;;;;5054808;28;20458;-71
2022/09/13 04:34:59;;;;;;;0.40;0.40;;;12.40;99.90;;;;;;5054957;28;20518;-67
2022/09/13 04:37:49;;;;;;;0.50;0.50;;;12.50;99.90;;;;;;5055405;28;20959;-66
2022/09/13 04:40:37;;;;;;;0.50;0.50;;;12.60;99.90;;;;;;5055717;28;21019;-67
2022/09/13 04:43:26;;;;;;;0.40;0.40;;;12.80;99.90;;;;;;5053919;28;20472;-66
2022/09/13 04:46:14;;;;;;;0.40;0.40;;;12.80;99.90;;;;;;5055471;28;20478;-67
2022/09/13 04:49:02;;;;;;;0.40;0.40;;;12.90;99.90;;;;;;5054667;28;20424;-65
2022/09/13 04:51:50;;;;;;;0.40;0.40;;;13.00;99.90;;;;;;5055116;28;20456;-69
2022/09/13 04:54:40;;;;;;;0.40;0.40;;;12.90;99.90;;;;;;5054839;28;20459;-68
2022/09/13 04:57:28;;;;;;;0.40;0.40;;;13.00;99.90;;;;;;5053707;28;21317;-66
2022/09/13 05:00:16;;;;;;;0.40;0.40;;;13.10;99.90;;;;;;5054296;28;20453;-66
2022/09/13 05:03:04;;;;;;;0.40;0.40;;;13.10;99.90;;;;;;5053972;28;20464;-67
2022/09/13 05:05:52;;;;;;;0.40;0.40;;;13.20;99.90;;;;;;5054710;28;20558;-66
2022/09/13 05:08:41;;;;;;;0.40;0.40;;;13.20;99.90;;;;;;5053736;28;20482;-68
2022/09/13 05:11:30;;;;;;;0.40;0.40;;;13.40;99.90;;;;;;5053713;28;20940;-66
2022/09/13 05:14:19;;;;;;;0.40;0.40;;;13.50;99.90;;;;;;5052161;28;20440;-69
2022/09/13 05:17:07;;;;;;;0.40;0.40;;;13.60;99.90;;;;;;5052745;28;20901;-68
2022/09/13 05:19:55;;;;;;;0.40;0.40;;;13.60;99.90;;;;;;5053024;28;20502;-69
2022/09/13 05:22:43;;;;;;;0.40;0.40;;;13.70;99.90;;;;;;5052021;28;20721;-69
2022/09/13 05:25:31;;;;;;;0.40;0.40;;;13.70;99.90;;;;;;5052905;28;20456;-68
2022/09/13 05:28:20;;;;;;;0.40;0.40;;;13.80;99.90;;;;;;5052119;28;20445;-68
2022/09/13 05:31:14;;;;;;;0.40;0.40;;;13.90;99.90;;;;;;5053021;28;20517;-68
2022/09/13 05:34:05;;;;;;;0.40;0.40;;;13.80;99.90;;;;;;5052443;28;20443;-68
2022/09/13 05:36:53;;;;;;;0.40;0.40;;;13.90;99.90;;;;;;5052608;28;20444;-68
2022/09/13 05:39:41;;;;;;;0.40;0.40;;;13.90;99.90;;;;;;5049473;28;20793;-68
2022/09/13 05:42:52;;;;;;;0.40;0.40;;;13.80;99.90;;;;;;5043218;28;20447;-68
2022/09/13 05:45:41;;;;;;;0.40;0.40;;;13.90;99.90;;;;;;5052497;28;20937;-68
2022/09/13 05:48:30;;;;;;;0.40;0.40;;;13.90;99.90;;;;;;5055758;28;20992;-70
2022/09/13 05:51:19;;;;;;;0.40;0.40;;;13.90;99.90;;;;;;5035476;28;20515;-68
2022/09/13 05:54:08;;;;;;;0.40;0.40;;;13.90;99.90;;;;;;5036020;28;20452;-69
2022/09/13 05:56:56;;;;;;;0.40;0.40;;;14.00;99.90;;;;;;5036067;28;20927;-66
2022/09/13 05:59:45;;;;;;;0.40;0.40;;;13.90;99.90;;;;;;5036427;28;20449;-67
2022/09/13 06:02:34;;;;;;;0.47;0.47;;;14.00;99.90;;;;;;5029633;28;21052;-67
2022/09/13 06:05:22;;;;;;;0.40;0.40;;;14.00;99.90;;;;;;5030108;28;20810;-67
2022/09/13 06:08:10;;;;;;;0.40;0.40;;;14.10;99.90;;;;;;5043870;28;20480;-69
2022/09/13 06:11:00;;;;;;;0.40;0.40;;;14.10;99.90;;;;;;5055211;28;20523;-68
2022/09/13 06:13:49;;;;;;;0.63;0.63;;;14.10;99.90;;;;;;5034742;28;20561;-66
2022/09/13 06:16:37;;;;;;;0.50;0.50;;;14.00;99.90;;;;;;5026921;28;20421;-71
2022/09/13 06:19:26;;;;;;;0.50;0.50;;;14.10;99.90;;;;;;5035550;28;20974;-66
2022/09/13 06:22:14;;;;;;;0.40;0.40;;;14.10;99.90;;;;;;5027382;28;20457;-68
2022/09/13 06:25:02;;;;;;;0.40;0.40;;;14.10;99.90;;;;;;5036218;28;20571;-68
2022/09/13 06:27:50;;;;;;;0.40;0.40;;;14.10;99.90;;;;;;5034704;28;20424;-70
2022/09/13 06:30:38;;;;;;;0.40;0.40;;;14.10;99.90;;;;;;5034894;28;20432;-69
2022/09/13 06:33:27;;;;;;;0.40;0.40;;;14.30;99.90;;;;;;5020410;28;20576;-69
2022/09/13 06:36:18;;;;;;;0.40;0.40;;;14.40;99.90;;;;;;5014789;28;20561;-69
2022/09/13 06:39:07;;;;;;;0.40;0.40;;;14.40;99.90;;;;;;5040689;28;20571;-72
2022/09/13 06:41:55;;;;;;;0.40;0.40;;;14.40;99.90;;;;;;5050961;28;20542;-68
2022/09/13 06:44:44;;;;;;;0.40;0.40;;;14.50;99.90;;;;;;5054928;28;20463;-69
2022/09/13 06:47:32;;;;;;;0.40;0.40;;;14.70;99.90;;;;;;5054014;28;20506;-71
2022/09/13 06:50:20;;;;;;;0.40;0.40;;;14.90;99.90;;;;;;5054214;28;20586;-71
2022/09/13 06:52:51;;;;;;;0.40;0.40;;;15.00;99.90;;;;;;5035817;28;20979;-68
2022/09/13 06:55:19;;;;;;;0.40;0.40;;;15.10;99.90;;;;;;5030884;28;20444;-70
2022/09/13 06:57:47;;;;;;;0.40;0.40;;;15.20;99.90;;;;;;5031830;28;20524;-72
2022/09/13 07:00:16;;;;;;;0.40;0.40;;;15.40;99.90;;;;;;5014451;28;20195;-69
2022/09/13 07:02:44;;;;;;;0.50;0.50;;;15.40;99.90;;;;;;5015607;28;20515;-68
2022/09/13 07:05:11;;;;;;;0.40;0.40;;;15.50;99.90;;;;;;5014852;28;20249;-69
2022/09/13 07:07:39;;;;;;;0.40;0.40;;;15.60;99.90;;;;;;5030986;28;20445;-72
2022/09/13 07:10:09;;;;;;;0.43;0.43;;;15.80;99.90;;;;;;5018771;28;20310;-68
2022/09/13 07:12:39;;;;;;;0.40;0.40;;;15.90;99.90;;;;;;5029449;28;20225;-71
2022/09/13 07:15:08;;;;;;;0.40;0.40;;;16.00;99.90;;;;;;5029590;28;20441;-69
2022/09/13 07:17:36;;;;;;;2.77;2.67;;;16.10;99.90;;;;;;5026571;28;20226;-69
2022/09/13 07:20:07;;;;;;;0.50;0.50;;;16.20;99.90;;;;;;5030721;28;20507;-68
2022/09/13 07:22:35;;;;;;;0.40;0.40;;;16.30;99.90;;;;;;5033232;28;20214;-69
2022/09/13 07:25:03;;;;;;;0.40;0.40;;;16.40;99.90;;;;;;5033260;28;20234;-68
2022/09/13 07:27:32;;;;;;;0.40;0.40;;;16.50;99.90;;;;;;5033108;28;20198;-66
2022/09/13 07:30:00;;;;;;;0.40;0.40;;;16.60;99.90;;;;;;5016297;28;20234;-69
2022/09/13 07:32:31;;;;;;;0.40;0.40;;;16.70;99.90;;;;;;5042031;28;20250;-68
2022/09/13 07:34:59;;;;;;;0.40;0.40;;;16.80;99.90;;;;;;5032583;28;20201;-68
2022/09/13 07:37:27;;;;;;;0.83;0.83;;;16.80;99.90;;;;;;5036399;28;20197;-67
2022/09/13 07:39:55;;;;;;;0.40;0.40;;;16.90;99.90;;;;;;5031785;28;20229;-69
2022/09/13 07:42:23;;;;;;;0.40;0.40;;;16.90;99.90;;;;;;5033477;28;20206;-71
2022/09/13 07:44:52;;;;;;;0.40;0.40;;;16.90;99.90;;;;;;5014573;28;20202;-71
2022/09/13 07:47:21;;;;;;;0.40;0.40;;;16.90;99.90;;;;;;5016952;28;20207;-70
2022/09/13 07:49:49;;;;;;;0.40;0.40;;;16.90;99.90;;;;;;5032740;28;20198;-68
2022/09/13 07:52:17;;;;;;;0.40;0.40;;;16.80;99.90;;;;;;5017530;28;20202;-68
2022/09/13 07:54:46;;;;;;;0.40;0.40;;;16.80;99.90;;;;;;5028921;28;20278;-69
2022/09/13 07:57:14;;;;;;;0.40;0.40;;;17.00;99.90;;;;;;5033294;28;20198;-71
2022/09/13 07:59:42;;;;;;;1.15;1.15;;;17.00;99.90;;;;;;5021176;28;20219;-71
2022/09/13 08:02:11;;;;;;;0.40;0.40;;;17.00;99.90;;;;;;5044540;28;20198;-68
2022/09/13 08:04:39;;;;;;;0.40;0.40;;;17.10;99.90;;;;;;5051279;28;20229;-69
2022/09/13 08:07:07;;;;;;;1.73;1.63;;;17.10;99.90;;;;;;5013521;28;20202;-68
2022/09/13 08:09:35;;;;;;;0.40;0.40;;;17.10;99.90;;;;;;5028568;28;20198;-67
2022/09/13 08:12:03;;;;;;;0.40;0.40;;;17.10;99.90;;;;;;5029176;28;20252;-69
2022/09/13 08:14:31;;;;;;;0.40;0.40;;;17.10;99.90;;;;;;5029766;28;20221;-68
2022/09/13 08:17:00;;;;;;;0.40;0.40;;;17.30;99.90;;;;;;5032513;28;20204;-68
2022/09/13 08:19:29;;;;;;;0.40;0.40;;;17.30;99.90;;;;;;5015664;28;20224;-70
2022/09/13 08:21:57;;;;;;;0.40;0.40;;;17.30;99.90;;;;;;5031035;28;20277;-67
2022/09/13 08:24:25;;;;;;;0.43;0.43;;;17.40;99.90;;;;;;5031083;28;20317;-70
2022/09/13 08:26:55;;;;;;;0.40;0.40;;;17.40;99.90;;;;;;5032422;28;20198;-69
2022/09/13 08:29:24;;;;;;;0.50;0.50;;;17.50;99.90;;;;;;5021042;28;20200;-71
2022/09/13 08:31:52;;;;;;;0.50;0.50;;;17.70;99.90;;;;;;5021375;28;20207;-70
2022/09/13 08:34:20;;;;;;;0.40;0.40;;;17.80;99.90;;;;;;5021875;28;20297;-69
2022/09/13 08:36:49;;;;;;;0.50;0.50;;;17.90;99.90;;;;;;5019425;28;20280;-72
2022/09/13 08:39:18;;;;;;;1.20;1.10;;;18.00;99.90;;;;;;5033423;28;20236;-73
2022/09/13 08:42:19;;;;;;;0.60;0.60;;;18.10;99.90;;;;;;5030102;28;20210;-71
2022/09/13 08:44:52;;;;;;;0.40;0.40;;;18.20;99.90;;;;;;5030224;28;20209;-72
2022/09/13 08:47:39;;;;;;;0.40;0.40;;;18.30;99.90;;;;;;5031373;28;20256;-69
2022/09/13 08:50:14;;;;;;;0.40;0.40;;;18.50;99.90;;;;;;5030733;28;20213;-70
2022/09/13 08:52:54;;;;;;;0.40;0.40;;;18.60;99.90;;;;;;5023879;28;20241;-68
2022/09/13 08:55:27;;;;;;;0.50;0.50;;;18.70;99.90;;;;;;5030347;28;20208;-68
2022/09/13 08:58:05;;;;;;;0.40;0.40;;;18.80;99.90;;;;;;5022593;28;20202;-68
2022/09/13 09:00:38;;;;;;;0.40;0.40;;;18.90;99.90;;;;;;5023193;28;20250;-69
2022/09/13 09:03:19;;;;;;;0.40;0.40;;;18.90;99.90;;;;;;5024954;28;20229;-66
2022/09/13 09:05:49;;;;;;;0.60;0.60;;;19.00;99.90;;;;;;5021352;28;20208;-67
2022/09/13 09:08:30;;;;;;;0.40;0.40;;;19.10;99.90;;;;;;5033739;28;20193;-67
2022/09/13 09:11:02;;;;;;;0.40;0.40;;;19.10;99.90;;;;;;5040240;28;20201;-69
2022/09/13 09:13:34;;;;;;;0.40;0.40;;;19.10;99.90;;;;;;5032631;28;20229;-71
2022/09/13 09:16:06;;;;;;;0.40;0.40;;;19.30;99.90;;;;;;5025950;28;20198;-69
2022/09/13 09:18:38;;;;;;;0.40;0.40;;;19.40;99.90;;;;;;5032756;28;20202;-65
2022/09/13 09:21:12;;;;;;;0.43;0.43;;;19.50;99.90;;;;;;5043981;28;20228;-69
2022/09/13 09:23:47;;;;;;;0.40;0.40;;;19.60;99.90;;;;;;5020038;28;20302;-67
2022/09/13 09:26:18;;;;;;;0.40;0.40;;;19.60;99.90;;;;;;5014165;28;20194;-67
2022/09/13 09:28:49;;;;;;;1.23;1.23;;;19.90;99.90;;;;;;5031593;28;20202;-66
2022/09/13 09:31:27;;;;;;;0.40;0.40;;;19.80;99.90;;;;;;5032906;28;20206;-66
2022/09/13 09:34:07;;;;;;;0.40;0.40;;;19.90;99.90;;;;;;5027552;28;20228;-66
2022/09/13 09:36:42;;;;;;;0.40;0.40;;;20.00;99.90;;;;;;5025933;28;20277;-68
2022/09/13 09:39:15;;;;;;;0.40;0.40;;;20.30;99.90;;;;;;5023714;28;20201;-66
2022/09/13 09:41:43;;;;;;;0.43;0.43;;;20.60;99.90;;;;;;5022942;28;20245;-66
2022/09/13 09:44:19;;;;;;;0.40;0.40;;;20.90;99.90;;;;;;5023330;28;20225;-67
2022/09/13 09:46:51;;;;;;;0.40;0.40;;;21.10;99.90;;;;;;5025532;28;20201;-65
2022/09/13 09:52:17;;;;;;;0.40;0.40;;;21.00;99.90;;;;;;5026054;28;20225;-65
2022/09/13 09:54:48;;;;;;;0.68;0.68;;;21.00;99.90;;;;;;5025755;28;20212;-66
2022/09/13 09:57:19;;;;;;;0.82;0.82;;;21.20;99.90;;;;;;5028364;28;20198;-66
2022/09/13 09:59:47;;;;;;;0.40;0.40;;;21.40;99.90;;;;;;5048066;28;20221;-66
2022/09/13 10:02:19;;;;;;;0.40;0.40;;;21.60;99.90;;;;;;5052106;28;20209;-67
2022/09/13 10:04:56;;;;;;;0.40;0.40;;;21.90;99.90;;;;;;5053601;28;20236;-68
2022/09/13 10:07:31;;;;;;;0.40;0.40;;;21.80;99.90;;;;;;5053771;28;20223;-66
2022/09/13 10:10:05;;;;;;;0.40;0.40;;;22.10;99.90;;;;;;5053429;28;20201;-66
2022/09/13 10:12:36;;;;;;;0.95;0.90;;;22.90;99.90;;;;;;5053529;28;20201;-67
2022/09/13 10:15:14;;;;;;;1.05;0.98;;;22.70;99.90;;;;;;5053416;28;20201;-66
2022/09/13 10:17:42;;;;;;;0.50;0.50;;;22.70;99.90;;;;;;5053608;28;20193;-67
2022/09/13 10:20:21;;;;;;;0.50;0.50;;;22.80;99.90;;;;;;5053643;28;20221;-66
2022/09/13 10:23:11;;;;;;;0.70;0.70;;;22.90;99.90;;;;;;5048452;28;20308;-66
2022/09/13 10:25:41;;;;;;;1.63;1.50;;;22.70;99.90;;;;;;5033805;28;20198;-68
2022/09/13 10:28:18;;;;;;;0.40;0.40;;;22.60;99.90;;;;;;5040307;28;20227;-66
2022/09/13 10:30:52;;;;;;;0.60;0.60;;;22.30;99.90;;;;;;5043339;28;20198;-66
2022/09/13 10:33:26;;;;;;;0.40;0.40;;;22.30;99.90;;;;;;5035265;28;20268;-66
2022/09/13 10:35:57;;;;;;;0.40;0.40;;;22.40;99.90;;;;;;5036987;28;20259;-67
2022/09/13 10:38:30;;;;;;;0.50;0.50;;;22.40;99.90;;;;;;5036894;28;20205;-66
2022/09/13 10:41:03;;;;;;;0.40;0.40;;;22.50;99.90;;;;;;5036871;28;20229;-66
2022/09/13 10:43:33;;;;;;;0.75;0.75;;;22.30;99.90;;;;;;5037049;28;20229;-67
2022/09/13 10:46:03;;;;;;;0.40;0.40;;;22.10;99.90;;;;;;5037229;28;20289;-66
2022/09/13 10:48:43;;;;;;;0.40;0.40;;;21.80;99.90;;;;;;5032495;28;20198;-66
2022/09/13 10:51:28;;;;;;;0.93;0.77;;;21.30;99.90;;;;;;5032794;28;20312;-67
2022/09/13 10:54:22;;;;;;;0.60;0.60;;;20.90;99.90;;;;;;5030923;28;20229;-67
2022/09/13 10:56:52;;;;;;;5.40;2.05;;;20.60;99.90;;;;;;5028063;28;20241;-66
2022/09/13 10:59:22;;;;;;;0.50;0.50;;;19.90;99.90;;;;;;5022353;28;20202;-68
2022/09/13 11:02:03;;;;;;;0.52;0.52;;;20.10;99.90;;;;;;5030147;28;20286;-72
2022/09/13 11:04:55;;;;;;;0.50;0.50;;;19.80;99.90;;;;;;5033276;28;20284;-67
2022/09/13 11:07:43;;;;;;;0.73;0.65;;;19.60;99.90;;;;;;5029129;28;20210;-68
2022/09/13 11:10:16;;;;;;;0.40;0.40;;;19.50;99.90;;;;;;5032959;28;20208;-71
2022/09/13 11:12:56;;;;;;;0.40;0.40;;;19.50;99.90;;;;;;5035638;28;20225;-69
2022/09/13 11:15:36;;;;;;;0.40;0.40;;;19.30;99.90;;;;;;5034195;28;20204;-67
2022/09/13 11:18:22;;;;;;;0.40;0.40;;;19.20;99.90;;;;;;5032383;28;20317;-69
2022/09/13 11:20:57;;;;;;;0.50;0.50;;;19.00;99.90;;;;;;5029678;28;20586;-69
2022/09/13 11:23:45;;;;;;;1.75;1.65;;;19.00;99.90;;;;;;5013735;28;20222;-71
2022/09/13 11:26:37;;;;;;;0.60;0.60;;;18.90;99.90;;;;;;5012728;28;20241;-68
2022/09/13 11:29:20;;;;;;;1.00;1.00;;;18.90;99.90;;;;;;5012681;28;20199;-69
2022/09/13 11:32:00;;;;;;;0.40;0.40;;;18.90;99.90;;;;;;5022386;28;20279;-71
2022/09/13 11:34:37;;;;;;;0.45;0.45;;;18.80;99.90;;;;;;5021715;28;20238;-72
2022/09/13 11:37:29;;;;;;;1.90;1.05;;;18.80;99.90;;;;;;5018997;28;20194;-67
2022/09/13 11:40:12;;;;;;;0.60;0.60;;;18.80;99.90;;;;;;5023955;28;20198;-67
2022/09/13 11:42:51;;;;;;;0.40;0.40;;;18.80;99.90;;;;;;5024094;28;20214;-68
2022/09/13 11:45:23;;;;;;;0.95;0.95;;;18.80;99.90;;;;;;5022274;28;20226;-66
2022/09/13 11:48:36;;;;;;;0.40;0.40;;;18.80;99.90;;;;;;5023627;28;20212;-70
2022/09/13 11:51:14;;;;;;;0.40;0.40;;;18.80;99.90;;;;;;4963959;28;20207;-69
2022/09/13 11:53:58;;;;;;;0.40;0.40;;;18.80;99.90;;;;;;5017744;28;20214;-67
2022/09/13 11:56:31;;;;;;;0.40;0.40;;;18.90;99.90;;;;;;5023870;28;20256;-68
2022/09/13 11:59:09;;;;;;;0.50;0.50;;;19.00;99.90;;;;;;5027736;28;20301;-69
2022/09/13 12:01:48;;;;;;;0.40;0.40;;;19.10;99.90;;;;;;5027519;28;20215;-67
2022/09/13 12:04:21;;;;;;;0.40;0.40;;;19.30;99.90;;;;;;5024582;28;20221;-66
2022/09/13 12:06:56;;;;;;;0.60;0.60;;;19.50;99.90;;;;;;5023204;28;20222;-66
2022/09/13 12:09:28;;;;;;;0.57;0.57;;;19.60;99.90;;;;;;5022740;28;20675;-65
2022/09/13 12:12:03;;;;;;;0.40;0.40;;;19.70;99.90;;;;;;5021216;28;20199;-65
2022/09/13 12:14:41;;;;;;;0.40;0.40;;;19.80;99.90;;;;;;5024046;28;20218;-66
2022/09/13 12:17:22;;;;;;;0.95;0.95;;;19.90;99.90;;;;;;5024928;28;20190;-66
2022/09/13 12:19:54;;;;;;;0.40;0.40;;;19.90;99.90;;;;;;5018696;28;20276;-66
2022/09/13 12:22:24;;;;;;;0.40;0.40;;;19.90;99.90;;;;;;5029661;28;20224;-66
2022/09/13 12:24:59;;;;;;;1.15;0.85;;;20.10;99.90;;;;;;5026589;28;20194;-66
2022/09/13 12:27:33;;;;;;;0.40;0.40;;;20.10;99.90;;;;;;5023021;28;20190;-66
2022/09/13 12:30:14;;;;;;;0.50;0.50;;;20.30;99.90;;;;;;5024832;28;20198;-65
2022/09/13 12:32:46;;;;;;;0.40;0.40;;;20.50;99.90;;;;;;5024704;28;20220;-66
2022/09/13 12:35:21;;;;;;;0.40;0.40;;;20.70;99.90;;;;;;5026527;28;20239;-65
2022/09/13 12:38:11;;;;;;;0.40;0.40;;;21.10;99.90;;;;;;5027138;28;20201;-65
2022/09/13 12:41:04;;;;;;;0.40;0.40;;;21.20;99.90;;;;;;5023232;28;20252;-65
2022/09/13 12:44:10;;;;;;;1.02;1.02;;;21.20;99.90;;;;;;5025882;28;20222;-65
2022/09/13 12:46:54;;;;;;;1.02;1.02;;;21.00;99.90;;;;;;5023258;28;20208;-67
2022/09/13 12:49:34;;;;;;;0.75;0.52;;;20.80;99.90;;;;;;5025156;28;20290;-66
2022/09/13 12:52:26;;;;;;;0.40;0.40;;;20.80;99.90;;;;;;5032286;28;20198;-66
2022/09/13 12:55:32;;;;;;;0.50;0.50;;;20.80;99.90;;;;;;5031100;28;20210;-66
2022/09/13 12:58:33;;;;;;;0.40;0.40;;;21.10;99.90;;;;;;5032612;28;20289;-69
2022/09/13 13:01:09;;;;;;;0.40;0.40;;;21.10;99.90;;;;;;5023288;28;20194;-66
2022/09/13 13:03:51;;;;;;;0.40;0.40;;;20.90;99.90;;;;;;5023901;28;20284;-66
2022/09/13 13:06:32;;;;;;;1.15;0.90;;;20.70;99.90;;;;;;5028922;28;20234;-67
2022/09/13 13:09:04;;;;;;;0.40;0.40;;;20.60;99.90;;;;;;5034370;28;20227;-66
2022/09/13 13:11:43;;;;;;;1.25;1.25;;;20.70;99.90;;;;;;5032464;28;20217;-66
2022/09/13 13:14:29;;;;;;;0.40;0.40;;;20.80;99.90;;;;;;5014923;28;20320;-66
2022/09/13 13:17:30;;;;;;;2.90;1.92;;;20.70;99.90;;;;;;5014684;28;20203;-66
2022/09/13 13:19:58;;;;;;;1.67;1.58;;;20.80;99.90;;;;;;5021529;28;20209;-64
2022/09/13 13:22:50;;;;;;;0.40;0.40;;;20.80;99.90;;;;;;5017107;28;20210;-65
2022/09/13 13:25:34;;;;;;;1.95;0.70;;;21.00;99.90;;;;;;5032395;28;20202;-65
2022/09/13 13:28:03;;;;;;;0.40;0.40;;;22.20;99.90;;;;;;5026703;28;20207;-65
2022/09/13 13:30:51;;;;;;;0.50;0.50;;;22.30;99.90;;;;;;5029724;28;20286;-66
2022/09/13 13:33:24;;;;;;;0.50;0.50;;;22.60;99.90;;;;;;5034083;28;20225;-66
2022/09/13 13:35:52;;;;;;;0.98;0.77;;;22.70;99.90;;;;;;5025551;28;20277;-65
2022/09/13 13:38:41;;;;;;;0.77;0.77;;;22.70;99.90;;;;;;5025137;28;20198;-67
2022/09/13 13:41:44;;;;;;;1.58;1.55;;;22.30;99.90;;;;;;5023139;28;20202;-65
2022/09/13 13:44:50;;;;;;;0.40;0.40;;;22.30;99.90;;;;;;5009099;28;20247;-67
2022/09/13 13:48:01;;;;;;;0.95;0.95;;;22.10;99.90;;;;;;5023238;28;20241;-66
2022/09/13 13:50:29;;;;;;;0.40;0.40;;;21.50;99.90;;;;;;5027505;28;20190;-68
2022/09/13 13:53:13;;;;;;;0.47;0.47;;;21.10;99.90;;;;;;5024699;28;20221;-66
2022/09/13 13:55:45;;;;;;;0.40;0.40;;;20.90;99.90;;;;;;5025398;28;20194;-66
2022/09/13 13:58:33;;;;;;;0.40;0.40;;;21.10;99.90;;;;;;5026756;28;20202;-66
2022/09/13 14:01:03;;;;;;;0.40;0.40;;;21.50;99.90;;;;;;5022739;28;20208;-66
2022/09/13 14:03:50;;;;;;;1.05;1.05;;;23.10;99.90;;;;;;5022091;28;20226;-66
2022/09/13 14:06:28;;;;;;;0.50;0.50;;;24.40;99.90;;;;;;5023523;28;20202;-67
2022/09/13 14:09:05;;;;;;;1.52;1.42;;;25.50;99.90;;;;;;5024132;28;20273;-67
2022/09/13 14:11:46;;;;;;;0.40;0.40;;;25.90;99.90;;;;;;5025395;28;20200;-69
2022/09/13 14:14:31;;;;;;;1.30;1.20;;;25.80;99.90;;;;;;5026590;28;20230;-68
2022/09/13 14:17:24;;;;;;;0.60;0.60;;;26.60;99.90;;;;;;5026349;28;20256;-68